sensor_id;sensor_type;location;lat;lon;timestamp;P1;durP1;ratioP1;P2;durP2;ratioP2
21206;SDS011;10761;48.532;8.026;2023-06-10T00:00:11;5.63;;;4.47;;
21206;SDS011;10761;48.532;8.026;2023-06-10T00:02:40;5.82;;;4.55;;
21206;SDS011;10761;48.532;8.026;2023-06-10T00:05:06;5.97;;;4.50;;
21206;SDS011;10761;48.532;8.026;2023-06-10T00:07:35;5.45;;;4.75;;
21206;SDS011;10761;48.532;8.026;2023-06-10T00:10:03;5.57;;;4.55;;
21206;SDS011;10761;48.532;8.026;2023-06-10T00:12:33;6.35;;;4.63;;
21206;SDS011;10761;48.532;8.026;2023-06-10T00:15:06;4.55;;;4.15;;
21206;SDS011;10761;48.532;8.026;2023-06-10T00:17:32;5.25;;;4.68;;
21206;SDS011;10761;48.532;8.026;2023-06-10T00:19:58;5.00;;;4.45;;
21206;SDS011;10761;48.532;8.026;2023-06-10T00:22:23;6.22;;;4.25;;
21206;SDS011;10761;48.532;8.026;2023-06-10T00:24:54;4.80;;;4.30;;
21206;SDS011;10761;48.532;8.026;2023-06-10T00:27:20;5.45;;;4.60;;
21206;SDS011;10761;48.532;8.026;2023-06-10T00:29:46;5.05;;;4.40;;
21206;SDS011;10761;48.532;8.026;2023-06-10T00:32:12;5.22;;;4.57;;
21206;SDS011;10761;48.532;8.026;2023-06-10T00:34:37;6.88;;;4.30;;
21206;SDS011;10761;48.532;8.026;2023-06-10T00:37:03;5.57;;;4.82;;
21206;SDS011;10761;48.532;8.026;2023-06-10T00:39:29;5.78;;;4.82;;
21206;SDS011;10761;48.532;8.026;2023-06-10T00:41:54;4.93;;;4.53;;
21206;SDS011;10761;48.532;8.026;2023-06-10T00:44:20;4.93;;;4.40;;
21206;SDS011;10761;48.532;8.026;2023-06-10T00:46:45;5.10;;;4.60;;
21206;SDS011;10761;48.532;8.026;2023-06-10T00:49:11;5.05;;;4.40;;
21206;SDS011;10761;48.532;8.026;2023-06-10T00:51:37;4.57;;;4.18;;
21206;SDS011;10761;48.532;8.026;2023-06-10T00:54:04;4.60;;;4.13;;
21206;SDS011;10761;48.532;8.026;2023-06-10T00:56:30;9.93;;;4.60;;
21206;SDS011;10761;48.532;8.026;2023-06-10T00:58:56;4.93;;;4.28;;
21206;SDS011;10761;48.532;8.026;2023-06-10T01:01:22;9.10;;;4.70;;
21206;SDS011;10761;48.532;8.026;2023-06-10T01:03:48;7.53;;;4.53;;
21206;SDS011;10761;48.532;8.026;2023-06-10T01:06:24;6.82;;;4.70;;
21206;SDS011;10761;48.532;8.026;2023-06-10T01:09:12;6.70;;;4.15;;
21206;SDS011;10761;48.532;8.026;2023-06-10T01:11:47;5.45;;;4.82;;
21206;SDS011;10761;48.532;8.026;2023-06-10T01:14:28;8.73;;;4.60;;
21206;SDS011;10761;48.532;8.026;2023-06-10T01:16:56;8.35;;;4.30;;
21206;SDS011;10761;48.532;8.026;2023-06-10T01:19:23;6.82;;;4.30;;
21206;SDS011;10761;48.532;8.026;2023-06-10T01:21:49;7.28;;;4.35;;
21206;SDS011;10761;48.532;8.026;2023-06-10T01:24:16;5.20;;;4.70;;
21206;SDS011;10761;48.532;8.026;2023-06-10T01:26:44;6.07;;;4.30;;
21206;SDS011;10761;48.532;8.026;2023-06-10T01:29:19;4.63;;;4.22;;
21206;SDS011;10761;48.532;8.026;2023-06-10T01:32:08;7.32;;;4.32;;
21206;SDS011;10761;48.532;8.026;2023-06-10T01:34:39;4.95;;;3.95;;
21206;SDS011;10761;48.532;8.026;2023-06-10T01:37:07;8.10;;;4.57;;
21206;SDS011;10761;48.532;8.026;2023-06-10T01:39:35;7.35;;;4.40;;
21206;SDS011;10761;48.532;8.026;2023-06-10T01:42:02;5.38;;;4.18;;
21206;SDS011;10761;48.532;8.026;2023-06-10T01:44:29;4.45;;;4.03;;
21206;SDS011;10761;48.532;8.026;2023-06-10T01:46:55;6.70;;;4.57;;
21206;SDS011;10761;48.532;8.026;2023-06-10T01:49:20;5.40;;;4.65;;
21206;SDS011;10761;48.532;8.026;2023-06-10T01:51:49;5.72;;;4.40;;
21206;SDS011;10761;48.532;8.026;2023-06-10T01:54:14;5.03;;;4.40;;
21206;SDS011;10761;48.532;8.026;2023-06-10T01:56:40;7.40;;;4.82;;
21206;SDS011;10761;48.532;8.026;2023-06-10T01:59:05;5.20;;;4.70;;
21206;SDS011;10761;48.532;8.026;2023-06-10T02:01:31;6.93;;;4.53;;
21206;SDS011;10761;48.532;8.026;2023-06-10T02:03:57;5.90;;;5.30;;
21206;SDS011;10761;48.532;8.026;2023-06-10T02:06:22;6.22;;;4.65;;
21206;SDS011;10761;48.532;8.026;2023-06-10T02:08:48;6.15;;;4.88;;
21206;SDS011;10761;48.532;8.026;2023-06-10T02:11:14;7.82;;;5.32;;
21206;SDS011;10761;48.532;8.026;2023-06-10T02:13:39;6.85;;;5.28;;
21206;SDS011;10761;48.532;8.026;2023-06-10T02:16:05;7.70;;;5.00;;
21206;SDS011;10761;48.532;8.026;2023-06-10T02:18:31;6.00;;;5.15;;
21206;SDS011;10761;48.532;8.026;2023-06-10T02:20:56;5.00;;;4.50;;
21206;SDS011;10761;48.532;8.026;2023-06-10T02:23:22;5.60;;;5.00;;
21206;SDS011;10761;48.532;8.026;2023-06-10T02:25:47;8.98;;;4.97;;
21206;SDS011;10761;48.532;8.026;2023-06-10T02:28:13;6.60;;;4.85;;
21206;SDS011;10761;48.532;8.026;2023-06-10T02:30:40;5.50;;;4.75;;
21206;SDS011;10761;48.532;8.026;2023-06-10T02:33:06;7.43;;;5.60;;
21206;SDS011;10761;48.532;8.026;2023-06-10T02:35:38;6.97;;;5.15;;
21206;SDS011;10761;48.532;8.026;2023-06-10T02:38:04;5.90;;;5.30;;
21206;SDS011;10761;48.532;8.026;2023-06-10T02:40:30;6.55;;;5.38;;
21206;SDS011;10761;48.532;8.026;2023-06-10T02:42:56;5.68;;;5.18;;
21206;SDS011;10761;48.532;8.026;2023-06-10T02:45:23;6.10;;;5.50;;
21206;SDS011;10761;48.532;8.026;2023-06-10T02:47:48;6.60;;;5.35;;
21206;SDS011;10761;48.532;8.026;2023-06-10T02:50:14;5.90;;;5.30;;
21206;SDS011;10761;48.532;8.026;2023-06-10T02:52:40;6.50;;;5.53;;
21206;SDS011;10761;48.532;8.026;2023-06-10T02:55:06;7.40;;;5.40;;
21206;SDS011;10761;48.532;8.026;2023-06-10T02:57:32;6.10;;;5.50;;
21206;SDS011;10761;48.532;8.026;2023-06-10T02:59:58;7.82;;;5.68;;
21206;SDS011;10761;48.532;8.026;2023-06-10T03:02:24;6.05;;;5.32;;
21206;SDS011;10761;48.532;8.026;2023-06-10T03:04:55;7.65;;;6.03;;
21206;SDS011;10761;48.532;8.026;2023-06-10T03:07:21;6.50;;;5.50;;
21206;SDS011;10761;48.532;8.026;2023-06-10T03:09:46;8.48;;;6.00;;
21206;SDS011;10761;48.532;8.026;2023-06-10T03:12:12;5.45;;;4.95;;
21206;SDS011;10761;48.532;8.026;2023-06-10T03:14:38;5.90;;;5.40;;
21206;SDS011;10761;48.532;8.026;2023-06-10T03:17:04;7.43;;;5.90;;
21206;SDS011;10761;48.532;8.026;2023-06-10T03:19:30;10.43;;;6.93;;
21206;SDS011;10761;48.532;8.026;2023-06-10T03:22:08;6.32;;;5.68;;
21206;SDS011;10761;48.532;8.026;2023-06-10T03:24:39;8.57;;;5.97;;
21206;SDS011;10761;48.532;8.026;2023-06-10T03:27:08;6.55;;;5.88;;
21206;SDS011;10761;48.532;8.026;2023-06-10T03:29:36;6.15;;;5.47;;
21206;SDS011;10761;48.532;8.026;2023-06-10T03:32:02;7.88;;;6.53;;
21206;SDS011;10761;48.532;8.026;2023-06-10T03:34:28;10.02;;;5.80;;
21206;SDS011;10761;48.532;8.026;2023-06-10T03:36:54;6.75;;;6.15;;
21206;SDS011;10761;48.532;8.026;2023-06-10T03:39:20;6.40;;;5.72;;
21206;SDS011;10761;48.532;8.026;2023-06-10T03:41:46;7.97;;;6.60;;
21206;SDS011;10761;48.532;8.026;2023-06-10T03:44:12;9.65;;;5.97;;
21206;SDS011;10761;48.532;8.026;2023-06-10T03:46:37;8.38;;;6.35;;
21206;SDS011;10761;48.532;8.026;2023-06-10T03:49:03;6.60;;;6.00;;
21206;SDS011;10761;48.532;8.026;2023-06-10T03:51:29;7.38;;;5.82;;
21206;SDS011;10761;48.532;8.026;2023-06-10T03:53:55;9.63;;;6.38;;
21206;SDS011;10761;48.532;8.026;2023-06-10T03:56:20;7.18;;;6.32;;
21206;SDS011;10761;48.532;8.026;2023-06-10T03:58:46;6.18;;;5.57;;
21206;SDS011;10761;48.532;8.026;2023-06-10T04:01:12;6.88;;;6.18;;
21206;SDS011;10761;48.532;8.026;2023-06-10T04:03:40;6.53;;;5.93;;
21206;SDS011;10761;48.532;8.026;2023-06-10T04:06:08;6.93;;;6.22;;
21206;SDS011;10761;48.532;8.026;2023-06-10T04:08:34;6.57;;;5.93;;
21206;SDS011;10761;48.532;8.026;2023-06-10T04:11:01;8.00;;;5.90;;
21206;SDS011;10761;48.532;8.026;2023-06-10T04:13:27;7.30;;;6.43;;
21206;SDS011;10761;48.532;8.026;2023-06-10T04:15:53;8.35;;;6.13;;
21206;SDS011;10761;48.532;8.026;2023-06-10T04:18:19;7.78;;;6.25;;
21206;SDS011;10761;48.532;8.026;2023-06-10T04:20:45;7.72;;;5.88;;
21206;SDS011;10761;48.532;8.026;2023-06-10T04:23:11;7.28;;;6.57;;
21206;SDS011;10761;48.532;8.026;2023-06-10T04:25:36;7.15;;;6.38;;
21206;SDS011;10761;48.532;8.026;2023-06-10T04:28:02;8.57;;;6.15;;
21206;SDS011;10761;48.532;8.026;2023-06-10T04:30:28;8.70;;;6.68;;
21206;SDS011;10761;48.532;8.026;2023-06-10T04:32:53;11.38;;;5.97;;
21206;SDS011;10761;48.532;8.026;2023-06-10T04:35:19;6.80;;;6.10;;
21206;SDS011;10761;48.532;8.026;2023-06-10T04:37:45;6.93;;;6.22;;
21206;SDS011;10761;48.532;8.026;2023-06-10T04:40:10;8.73;;;6.95;;
21206;SDS011;10761;48.532;8.026;2023-06-10T04:42:36;10.23;;;6.53;;
21206;SDS011;10761;48.532;8.026;2023-06-10T04:45:02;6.68;;;6.00;;
21206;SDS011;10761;48.532;8.026;2023-06-10T04:47:29;6.72;;;6.03;;
21206;SDS011;10761;48.532;8.026;2023-06-10T04:49:58;7.47;;;6.65;;
21206;SDS011;10761;48.532;8.026;2023-06-10T04:52:24;8.13;;;6.40;;
21206;SDS011;10761;48.532;8.026;2023-06-10T04:54:49;8.50;;;6.38;;
21206;SDS011;10761;48.532;8.026;2023-06-10T04:57:15;8.20;;;6.32;;
21206;SDS011;10761;48.532;8.026;2023-06-10T04:59:40;9.18;;;6.50;;
21206;SDS011;10761;48.532;8.026;2023-06-10T05:02:06;8.45;;;6.47;;
21206;SDS011;10761;48.532;8.026;2023-06-10T05:04:32;7.40;;;5.97;;
21206;SDS011;10761;48.532;8.026;2023-06-10T05:06:57;6.82;;;5.95;;
21206;SDS011;10761;48.532;8.026;2023-06-10T05:09:23;8.32;;;6.40;;
21206;SDS011;10761;48.532;8.026;2023-06-10T05:11:49;6.63;;;5.78;;
21206;SDS011;10761;48.532;8.026;2023-06-10T05:14:14;6.82;;;6.18;;
21206;SDS011;10761;48.532;8.026;2023-06-10T05:16:44;8.15;;;6.32;;
21206;SDS011;10761;48.532;8.026;2023-06-10T05:19:09;13.43;;;6.35;;
21206;SDS011;10761;48.532;8.026;2023-06-10T05:21:36;11.90;;;7.15;;
21206;SDS011;10761;48.532;8.026;2023-06-10T05:24:02;9.18;;;6.40;;
21206;SDS011;10761;48.532;8.026;2023-06-10T05:26:27;14.80;;;7.75;;
21206;SDS011;10761;48.532;8.026;2023-06-10T05:28:54;12.93;;;8.10;;
21206;SDS011;10761;48.532;8.026;2023-06-10T05:31:19;13.27;;;7.45;;
21206;SDS011;10761;48.532;8.026;2023-06-10T05:33:45;9.07;;;7.32;;
21206;SDS011;10761;48.532;8.026;2023-06-10T05:36:11;9.55;;;7.00;;
21206;SDS011;10761;48.532;8.026;2023-06-10T05:38:36;8.10;;;7.30;;
21206;SDS011;10761;48.532;8.026;2023-06-10T05:41:02;10.70;;;6.93;;
21206;SDS011;10761;48.532;8.026;2023-06-10T05:43:28;10.35;;;6.68;;
21206;SDS011;10761;48.532;8.026;2023-06-10T05:45:53;8.00;;;6.45;;
21206;SDS011;10761;48.532;8.026;2023-06-10T05:48:19;9.48;;;7.35;;
21206;SDS011;10761;48.532;8.026;2023-06-10T05:50:45;8.98;;;6.80;;
21206;SDS011;10761;48.532;8.026;2023-06-10T05:53:13;10.38;;;7.55;;
21206;SDS011;10761;48.532;8.026;2023-06-10T05:55:40;11.68;;;7.68;;
21206;SDS011;10761;48.532;8.026;2023-06-10T05:58:09;10.63;;;7.40;;
21206;SDS011;10761;48.532;8.026;2023-06-10T06:00:35;13.00;;;8.10;;
21206;SDS011;10761;48.532;8.026;2023-06-10T06:03:02;9.68;;;8.07;;
21206;SDS011;10761;48.532;8.026;2023-06-10T06:05:27;11.35;;;7.75;;
21206;SDS011;10761;48.532;8.026;2023-06-10T06:07:53;9.73;;;8.00;;
21206;SDS011;10761;48.532;8.026;2023-06-10T06:10:18;19.25;;;8.52;;
21206;SDS011;10761;48.532;8.026;2023-06-10T06:12:44;9.82;;;8.63;;
21206;SDS011;10761;48.532;8.026;2023-06-10T06:15:10;8.57;;;7.40;;
21206;SDS011;10761;48.532;8.026;2023-06-10T06:17:36;10.70;;;8.15;;
21206;SDS011;10761;48.532;8.026;2023-06-10T06:20:02;10.40;;;8.23;;
21206;SDS011;10761;48.532;8.026;2023-06-10T06:22:28;9.88;;;8.88;;
21206;SDS011;10761;48.532;8.026;2023-06-10T06:24:54;11.85;;;9.10;;
21206;SDS011;10761;48.532;8.026;2023-06-10T06:27:20;15.73;;;7.53;;
21206;SDS011;10761;48.532;8.026;2023-06-10T06:29:46;12.38;;;8.43;;
21206;SDS011;10761;48.532;8.026;2023-06-10T06:32:11;7.53;;;6.82;;
21206;SDS011;10761;48.532;8.026;2023-06-10T06:34:37;8.10;;;7.25;;
21206;SDS011;10761;48.532;8.026;2023-06-10T06:37:03;8.52;;;7.35;;
21206;SDS011;10761;48.532;8.026;2023-06-10T06:39:29;8.23;;;7.40;;
21206;SDS011;10761;48.532;8.026;2023-06-10T06:41:54;11.57;;;7.85;;
21206;SDS011;10761;48.532;8.026;2023-06-10T06:44:20;7.88;;;6.97;;
21206;SDS011;10761;48.532;8.026;2023-06-10T06:46:46;10.45;;;8.10;;
21206;SDS011;10761;48.532;8.026;2023-06-10T06:49:11;14.35;;;7.90;;
21206;SDS011;10761;48.532;8.026;2023-06-10T06:51:37;9.55;;;7.40;;
21206;SDS011;10761;48.532;8.026;2023-06-10T06:54:02;10.40;;;8.02;;
21206;SDS011;10761;48.532;8.026;2023-06-10T06:56:30;10.30;;;7.40;;
21206;SDS011;10761;48.532;8.026;2023-06-10T06:58:56;9.32;;;8.25;;
21206;SDS011;10761;48.532;8.026;2023-06-10T07:01:21;8.85;;;7.95;;
21206;SDS011;10761;48.532;8.026;2023-06-10T07:03:47;11.45;;;7.53;;
21206;SDS011;10761;48.532;8.026;2023-06-10T07:06:13;8.60;;;7.80;;
21206;SDS011;10761;48.532;8.026;2023-06-10T07:08:39;10.63;;;6.90;;
21206;SDS011;10761;48.532;8.026;2023-06-10T07:11:04;10.32;;;6.80;;
21206;SDS011;10761;48.532;8.026;2023-06-10T07:13:30;7.25;;;6.47;;
21206;SDS011;10761;48.532;8.026;2023-06-10T07:15:55;10.35;;;6.65;;
21206;SDS011;10761;48.532;8.026;2023-06-10T07:18:21;6.43;;;5.82;;
21206;SDS011;10761;48.532;8.026;2023-06-10T07:20:47;8.90;;;5.70;;
21206;SDS011;10761;48.532;8.026;2023-06-10T07:23:12;17.80;;;6.60;;
21206;SDS011;10761;48.532;8.026;2023-06-10T07:25:38;13.90;;;6.85;;
21206;SDS011;10761;48.532;8.026;2023-06-10T07:28:03;7.97;;;6.53;;
21206;SDS011;10761;48.532;8.026;2023-06-10T07:30:29;7.75;;;6.60;;
21206;SDS011;10761;48.532;8.026;2023-06-10T07:32:55;10.23;;;6.40;;
21206;SDS011;10761;48.532;8.026;2023-06-10T07:35:21;6.40;;;5.80;;
21206;SDS011;10761;48.532;8.026;2023-06-10T07:37:46;6.65;;;5.88;;
21206;SDS011;10761;48.532;8.026;2023-06-10T07:40:12;10.50;;;6.25;;
21206;SDS011;10761;48.532;8.026;2023-06-10T07:42:38;6.57;;;5.63;;
21206;SDS011;10761;48.532;8.026;2023-06-10T07:45:04;9.75;;;6.50;;
21206;SDS011;10761;48.532;8.026;2023-06-10T07:47:33;6.35;;;5.65;;
21206;SDS011;10761;48.532;8.026;2023-06-10T07:49:59;7.90;;;6.43;;
21206;SDS011;10761;48.532;8.026;2023-06-10T07:52:25;9.38;;;6.10;;
21206;SDS011;10761;48.532;8.026;2023-06-10T07:54:51;8.52;;;5.63;;
21206;SDS011;10761;48.532;8.026;2023-06-10T07:57:17;11.05;;;6.75;;
21206;SDS011;10761;48.532;8.026;2023-06-10T07:59:42;7.60;;;6.80;;
21206;SDS011;10761;48.532;8.026;2023-06-10T08:02:09;8.50;;;7.05;;
21206;SDS011;10761;48.532;8.026;2023-06-10T08:04:35;8.88;;;6.50;;
21206;SDS011;10761;48.532;8.026;2023-06-10T08:07:00;9.35;;;5.93;;
21206;SDS011;10761;48.532;8.026;2023-06-10T08:09:27;8.15;;;5.55;;
21206;SDS011;10761;48.532;8.026;2023-06-10T08:11:53;8.88;;;5.63;;
21206;SDS011;10761;48.532;8.026;2023-06-10T08:14:18;7.25;;;6.22;;
21206;SDS011;10761;48.532;8.026;2023-06-10T08:16:44;15.20;;;6.50;;
21206;SDS011;10761;48.532;8.026;2023-06-10T08:19:10;6.82;;;5.85;;
21206;SDS011;10761;48.532;8.026;2023-06-10T08:21:36;7.20;;;5.22;;
21206;SDS011;10761;48.532;8.026;2023-06-10T08:24:04;7.63;;;5.68;;
21206;SDS011;10761;48.532;8.026;2023-06-10T08:26:31;9.65;;;6.07;;
21206;SDS011;10761;48.532;8.026;2023-06-10T08:28:56;7.80;;;5.55;;
21206;SDS011;10761;48.532;8.026;2023-06-10T08:31:22;7.90;;;6.43;;
21206;SDS011;10761;48.532;8.026;2023-06-10T08:33:48;10.45;;;6.30;;
21206;SDS011;10761;48.532;8.026;2023-06-10T08:36:13;7.28;;;5.82;;
21206;SDS011;10761;48.532;8.026;2023-06-10T08:38:39;10.07;;;5.85;;
21206;SDS011;10761;48.532;8.026;2023-06-10T08:41:05;7.28;;;5.93;;
21206;SDS011;10761;48.532;8.026;2023-06-10T08:43:33;5.88;;;5.20;;
21206;SDS011;10761;48.532;8.026;2023-06-10T08:46:04;8.65;;;5.43;;
21206;SDS011;10761;48.532;8.026;2023-06-10T08:48:34;6.50;;;5.43;;
21206;SDS011;10761;48.532;8.026;2023-06-10T08:51:03;9.68;;;5.50;;
21206;SDS011;10761;48.532;8.026;2023-06-10T08:53:30;6.53;;;5.28;;
21206;SDS011;10761;48.532;8.026;2023-06-10T08:55:58;12.30;;;5.85;;
21206;SDS011;10761;48.532;8.026;2023-06-10T08:58:29;9.35;;;5.65;;
21206;SDS011;10761;48.532;8.026;2023-06-10T09:00:58;6.68;;;5.18;;
21206;SDS011;10761;48.532;8.026;2023-06-10T09:03:24;6.82;;;5.85;;
21206;SDS011;10761;48.532;8.026;2023-06-10T09:05:50;9.00;;;5.75;;
21206;SDS011;10761;48.532;8.026;2023-06-10T09:08:16;9.25;;;5.60;;
21206;SDS011;10761;48.532;8.026;2023-06-10T09:10:42;12.25;;;5.53;;
21206;SDS011;10761;48.532;8.026;2023-06-10T09:13:08;12.23;;;5.72;;
21206;SDS011;10761;48.532;8.026;2023-06-10T09:15:33;7.38;;;5.32;;
21206;SDS011;10761;48.532;8.026;2023-06-10T09:17:59;9.32;;;5.75;;
21206;SDS011;10761;48.532;8.026;2023-06-10T09:20:25;8.45;;;5.15;;
21206;SDS011;10761;48.532;8.026;2023-06-10T09:22:51;11.35;;;5.90;;
21206;SDS011;10761;48.532;8.026;2023-06-10T09:25:16;7.78;;;5.95;;
21206;SDS011;10761;48.532;8.026;2023-06-10T09:27:49;8.30;;;5.63;;
21206;SDS011;10761;48.532;8.026;2023-06-10T09:30:25;5.43;;;4.93;;
21206;SDS011;10761;48.532;8.026;2023-06-10T09:32:56;5.60;;;5.00;;
21206;SDS011;10761;48.532;8.026;2023-06-10T09:35:23;10.00;;;5.05;;
21206;SDS011;10761;48.532;8.026;2023-06-10T09:37:50;10.77;;;4.90;;
21206;SDS011;10761;48.532;8.026;2023-06-10T09:40:17;5.60;;;5.00;;
21206;SDS011;10761;48.532;8.026;2023-06-10T09:42:43;5.32;;;4.28;;
21206;SDS011;10761;48.532;8.026;2023-06-10T09:45:08;4.78;;;4.38;;
21206;SDS011;10761;48.532;8.026;2023-06-10T09:47:34;8.38;;;4.50;;
21206;SDS011;10761;48.532;8.026;2023-06-10T09:50:00;8.75;;;4.63;;
21206;SDS011;10761;48.532;8.026;2023-06-10T09:52:27;11.95;;;5.32;;
21206;SDS011;10761;48.532;8.026;2023-06-10T09:54:58;17.73;;;5.70;;
21206;SDS011;10761;48.532;8.026;2023-06-10T09:57:25;4.63;;;4.22;;
21206;SDS011;10761;48.532;8.026;2023-06-10T09:59:54;8.30;;;4.70;;
21206;SDS011;10761;48.532;8.026;2023-06-10T10:02:20;9.32;;;4.88;;
21206;SDS011;10761;48.532;8.026;2023-06-10T10:04:46;5.95;;;4.40;;
21206;SDS011;10761;48.532;8.026;2023-06-10T10:07:12;8.50;;;4.65;;
21206;SDS011;10761;48.532;8.026;2023-06-10T10:09:38;12.88;;;4.20;;
21206;SDS011;10761;48.532;8.026;2023-06-10T10:12:07;14.18;;;5.78;;
21206;SDS011;10761;48.532;8.026;2023-06-10T10:14:39;5.25;;;4.20;;
21206;SDS011;10761;48.532;8.026;2023-06-10T10:17:07;5.22;;;4.20;;
21206;SDS011;10761;48.532;8.026;2023-06-10T10:20:09;5.45;;;4.30;;
21206;SDS011;10761;48.532;8.026;2023-06-10T10:22:30;8.05;;;4.10;;
21206;SDS011;10761;48.532;8.026;2023-06-10T10:25:01;5.85;;;4.20;;
21206;SDS011;10761;48.532;8.026;2023-06-10T10:27:41;7.28;;;4.35;;
21206;SDS011;10761;48.532;8.026;2023-06-10T10:30:12;4.05;;;3.65;;
21206;SDS011;10761;48.532;8.026;2023-06-10T10:32:43;4.32;;;3.92;;
21206;SDS011;10761;48.532;8.026;2023-06-10T10:35:17;4.65;;;4.05;;
21206;SDS011;10761;48.532;8.026;2023-06-10T10:37:50;5.20;;;3.85;;
21206;SDS011;10761;48.532;8.026;2023-06-10T10:40:18;3.95;;;3.50;;
21206;SDS011;10761;48.532;8.026;2023-06-10T10:42:45;5.10;;;3.28;;
21206;SDS011;10761;48.532;8.026;2023-06-10T10:45:13;3.85;;;3.45;;
21206;SDS011;10761;48.532;8.026;2023-06-10T10:47:40;3.63;;;3.17;;
21206;SDS011;10761;48.532;8.026;2023-06-10T10:50:17;4.15;;;3.25;;
21206;SDS011;10761;48.532;8.026;2023-06-10T10:55:24;4.20;;;3.13;;
21206;SDS011;10761;48.532;8.026;2023-06-10T11:00:43;4.93;;;3.22;;
21206;SDS011;10761;48.532;8.026;2023-06-10T11:03:13;4.57;;;3.65;;
21206;SDS011;10761;48.532;8.026;2023-06-10T11:05:48;4.63;;;3.58;;
21206;SDS011;10761;48.532;8.026;2023-06-10T11:10:58;4.65;;;3.70;;
21206;SDS011;10761;48.532;8.026;2023-06-10T11:13:25;4.28;;;3.72;;
21206;SDS011;10761;48.532;8.026;2023-06-10T11:15:51;8.18;;;3.65;;
21206;SDS011;10761;48.532;8.026;2023-06-10T11:18:23;6.28;;;3.63;;
21206;SDS011;10761;48.532;8.026;2023-06-10T11:20:58;3.72;;;3.42;;
21206;SDS011;10761;48.532;8.026;2023-06-10T11:26:16;5.28;;;3.35;;
21206;SDS011;10761;48.532;8.026;2023-06-10T11:31:25;4.93;;;3.22;;
21206;SDS011;10761;48.532;8.026;2023-06-10T11:33:53;3.25;;;2.95;;
21206;SDS011;10761;48.532;8.026;2023-06-10T11:36:20;5.20;;;3.15;;
21206;SDS011;10761;48.532;8.026;2023-06-10T11:38:46;3.30;;;3.00;;
21206;SDS011;10761;48.532;8.026;2023-06-10T11:41:12;4.50;;;3.25;;
21206;SDS011;10761;48.532;8.026;2023-06-10T11:43:45;3.30;;;3.00;;
21206;SDS011;10761;48.532;8.026;2023-06-10T11:46:12;4.40;;;2.78;;
21206;SDS011;10761;48.532;8.026;2023-06-10T11:48:51;5.20;;;2.90;;
21206;SDS011;10761;48.532;8.026;2023-06-10T11:51:17;5.00;;;3.05;;
21206;SDS011;10761;48.532;8.026;2023-06-10T11:53:49;3.13;;;2.92;;
21206;SDS011;10761;48.532;8.026;2023-06-10T11:56:22;3.25;;;2.90;;
21206;SDS011;10761;48.532;8.026;2023-06-10T12:01:22;3.10;;;2.80;;
21206;SDS011;10761;48.532;8.026;2023-06-10T12:03:56;3.20;;;2.90;;
21206;SDS011;10761;48.532;8.026;2023-06-10T12:06:26;6.03;;;3.00;;
21206;SDS011;10761;48.532;8.026;2023-06-10T12:08:53;2.80;;;2.60;;
21206;SDS011;10761;48.532;8.026;2023-06-10T12:11:19;2.70;;;2.50;;
21206;SDS011;10761;48.532;8.026;2023-06-10T12:13:49;2.90;;;2.67;;
21206;SDS011;10761;48.532;8.026;2023-06-10T12:16:15;2.88;;;2.67;;
21206;SDS011;10761;48.532;8.026;2023-06-10T12:18:43;10.50;;;2.83;;
21206;SDS011;10761;48.532;8.026;2023-06-10T12:26:41;8.82;;;2.47;;
21206;SDS011;10761;48.532;8.026;2023-06-10T12:32:02;5.40;;;2.55;;
21206;SDS011;10761;48.532;8.026;2023-06-10T12:36:57;3.55;;;2.75;;
21206;SDS011;10761;48.532;8.026;2023-06-10T12:39:23;3.30;;;2.33;;
21206;SDS011;10761;48.532;8.026;2023-06-10T12:41:49;6.38;;;2.70;;
21206;SDS011;10761;48.532;8.026;2023-06-10T12:44:16;2.75;;;2.55;;
21206;SDS011;10761;48.532;8.026;2023-06-10T12:46:41;5.05;;;3.00;;
21206;SDS011;10761;48.532;8.026;2023-06-10T12:49:07;3.65;;;2.80;;
21206;SDS011;10761;48.532;8.026;2023-06-10T12:51:32;17.00;;;4.03;;
21206;SDS011;10761;48.532;8.026;2023-06-10T12:53:59;25.80;;;5.30;;
21206;SDS011;10761;48.532;8.026;2023-06-10T12:56:25;8.38;;;2.95;;
21206;SDS011;10761;48.532;8.026;2023-06-10T12:58:51;2.95;;;2.60;;
21206;SDS011;10761;48.532;8.026;2023-06-10T13:01:16;4.07;;;2.75;;
21206;SDS011;10761;48.532;8.026;2023-06-10T13:03:42;5.07;;;2.72;;
21206;SDS011;10761;48.532;8.026;2023-06-10T13:06:07;2.88;;;2.67;;
21206;SDS011;10761;48.532;8.026;2023-06-10T13:08:33;2.65;;;2.40;;
21206;SDS011;10761;48.532;8.026;2023-06-10T13:10:59;4.35;;;3.08;;
21206;SDS011;10761;48.532;8.026;2023-06-10T13:13:25;3.88;;;3.50;;
21206;SDS011;10761;48.532;8.026;2023-06-10T13:15:51;3.53;;;3.20;;
21206;SDS011;10761;48.532;8.026;2023-06-10T13:18:17;5.55;;;3.03;;
21206;SDS011;10761;48.532;8.026;2023-06-10T13:20:45;3.58;;;3.08;;
21206;SDS011;10761;48.532;8.026;2023-06-10T13:23:11;6.88;;;3.15;;
21206;SDS011;10761;48.532;8.026;2023-06-10T13:25:36;5.35;;;3.35;;
21206;SDS011;10761;48.532;8.026;2023-06-10T13:28:02;11.18;;;3.38;;
21206;SDS011;10761;48.532;8.026;2023-06-10T13:30:28;3.45;;;3.15;;
21206;SDS011;10761;48.532;8.026;2023-06-10T13:32:53;3.30;;;2.90;;
21206;SDS011;10761;48.532;8.026;2023-06-10T13:35:19;3.10;;;2.90;;
21206;SDS011;10761;48.532;8.026;2023-06-10T13:37:45;3.20;;;2.85;;
21206;SDS011;10761;48.532;8.026;2023-06-10T13:40:11;5.97;;;3.10;;
21206;SDS011;10761;48.532;8.026;2023-06-10T13:42:37;8.40;;;3.08;;
21206;SDS011;10761;48.532;8.026;2023-06-10T13:45:03;3.97;;;2.97;;
21206;SDS011;10761;48.532;8.026;2023-06-10T13:47:30;4.80;;;3.30;;
21206;SDS011;10761;48.532;8.026;2023-06-10T13:49:55;4.05;;;3.50;;
21206;SDS011;10761;48.532;8.026;2023-06-10T13:52:21;4.22;;;2.95;;
21206;SDS011;10761;48.532;8.026;2023-06-10T13:54:46;6.55;;;3.10;;
21206;SDS011;10761;48.532;8.026;2023-06-10T13:57:12;3.20;;;2.90;;
21206;SDS011;10761;48.532;8.026;2023-06-10T13:59:37;2.90;;;2.70;;
21206;SDS011;10761;48.532;8.026;2023-06-10T14:02:03;3.67;;;2.50;;
21206;SDS011;10761;48.532;8.026;2023-06-10T14:04:29;4.18;;;2.55;;
21206;SDS011;10761;48.532;8.026;2023-06-10T14:06:55;3.78;;;2.95;;
21206;SDS011;10761;48.532;8.026;2023-06-10T14:09:20;3.55;;;3.25;;
21206;SDS011;10761;48.532;8.026;2023-06-10T14:11:46;3.42;;;2.90;;
21206;SDS011;10761;48.532;8.026;2023-06-10T14:14:12;3.20;;;2.90;;
21206;SDS011;10761;48.532;8.026;2023-06-10T14:16:39;3.85;;;2.88;;
21206;SDS011;10761;48.532;8.026;2023-06-10T14:19:05;3.60;;;2.40;;
21206;SDS011;10761;48.532;8.026;2023-06-10T14:21:30;2.70;;;2.50;;
21206;SDS011;10761;48.532;8.026;2023-06-10T14:23:56;4.85;;;2.70;;
21206;SDS011;10761;48.532;8.026;2023-06-10T14:26:21;4.88;;;2.78;;
21206;SDS011;10761;48.532;8.026;2023-06-10T14:28:47;8.23;;;3.05;;
21206;SDS011;10761;48.532;8.026;2023-06-10T14:31:14;5.20;;;2.90;;
21206;SDS011;10761;48.532;8.026;2023-06-10T14:33:40;3.05;;;2.85;;
21206;SDS011;10761;48.532;8.026;2023-06-10T14:36:08;3.05;;;2.72;;
21206;SDS011;10761;48.532;8.026;2023-06-10T14:38:34;4.07;;;2.80;;
21206;SDS011;10761;48.532;8.026;2023-06-10T14:40:59;4.10;;;2.63;;
21206;SDS011;10761;48.532;8.026;2023-06-10T14:43:25;7.07;;;3.28;;
21206;SDS011;10761;48.532;8.026;2023-06-10T14:45:51;7.13;;;3.25;;
21206;SDS011;10761;48.532;8.026;2023-06-10T14:48:16;3.33;;;2.88;;
21206;SDS011;10761;48.532;8.026;2023-06-10T14:50:42;5.82;;;3.13;;
21206;SDS011;10761;48.532;8.026;2023-06-10T14:53:10;4.50;;;2.92;;
21206;SDS011;10761;48.532;8.026;2023-06-10T14:55:35;3.35;;;3.05;;
21206;SDS011;10761;48.532;8.026;2023-06-10T14:58:01;3.58;;;3.28;;
21206;SDS011;10761;48.532;8.026;2023-06-10T15:00:27;5.03;;;3.30;;
21206;SDS011;10761;48.532;8.026;2023-06-10T15:02:52;5.97;;;3.25;;
21206;SDS011;10761;48.532;8.026;2023-06-10T15:05:20;3.42;;;3.13;;
21206;SDS011;10761;48.532;8.026;2023-06-10T15:07:46;3.33;;;3.00;;
21206;SDS011;10761;48.532;8.026;2023-06-10T15:10:12;4.32;;;3.00;;